Time;durP1;ratioP1;P1;durP2;ratioP2;P2;SDS_P1;SDS_P2;PMS_P1;PMS_P2;Temp;Humidity;BMP_temperature;BMP_pressure;BME280_temperature;BME280_humidity;BME280_pressure;Samples;Min_cycle;Max_cycle;Signal;HPM_P1;HPM_P2
2022/07/21 00:01:52;;;;;;;5.50;4.15;;;21.30;99.90;;;;;;4935338;29;20130;-74
2022/07/21 00:04:19;;;;;;;6.38;4.72;;;21.30;99.90;;;;;;4935017;29;20477;-72
2022/07/21 00:06:46;;;;;;;6.93;4.95;;;21.20;99.90;;;;;;4934549;29;20046;-78
2022/07/21 00:09:13;;;;;;;7.25;5.35;;;21.30;99.90;;;;;;4935380;29;20059;-78
2022/07/21 00:11:39;;;;;;;12.75;5.18;;;21.30;99.90;;;;;;4934997;29;20048;-77
2022/07/21 00:14:07;;;;;;;7.05;4.70;;;21.30;99.90;;;;;;4935122;29;20137;-77
2022/07/21 00:16:33;;;;;;;7.55;4.97;;;21.20;99.90;;;;;;4935198;29;20047;-76
2022/07/21 00:18:59;;;;;;;8.27;4.15;;;21.20;99.90;;;;;;4935468;29;20043;-77
2022/07/21 00:21:26;;;;;;;6.70;4.13;;;21.20;99.90;;;;;;4935293;29;20059;-75
2022/07/21 00:23:52;;;;;;;5.60;4.60;;;21.20;99.90;;;;;;4934772;29;20143;-73
2022/07/21 00:26:17;;;;;;;6.10;4.85;;;21.20;99.90;;;;;;4934963;29;20075;-77
2022/07/21 00:28:43;;;;;;;7.72;4.78;;;21.20;99.90;;;;;;4934951;29;20401;-73
2022/07/21 00:31:09;;;;;;;9.18;5.18;;;21.10;99.90;;;;;;4934601;29;20469;-77
2022/07/21 00:33:34;;;;;;;9.52;5.72;;;21.20;99.90;;;;;;4935096;29;20447;-76
2022/07/21 00:36:00;;;;;;;8.43;4.82;;;21.10;99.90;;;;;;4934914;29;20095;-77
2022/07/21 00:38:26;;;;;;;11.25;5.80;;;21.10;99.90;;;;;;4935293;29;20098;-76
2022/07/21 00:40:52;;;;;;;8.13;4.80;;;21.00;99.90;;;;;;4934765;29;20437;-77
2022/07/21 00:43:18;;;;;;;10.48;5.80;;;21.00;99.90;;;;;;4935428;29;20048;-76
2022/07/21 00:45:44;;;;;;;9.65;5.95;;;20.90;99.90;;;;;;4934858;29;20484;-75
2022/07/21 00:48:09;;;;;;;10.27;6.50;;;21.00;99.90;;;;;;4934760;29;20167;-73
2022/07/21 00:50:35;;;;;;;11.38;6.93;;;20.90;99.90;;;;;;4934791;29;20122;-75
2022/07/21 00:53:01;;;;;;;12.48;6.20;;;20.90;99.90;;;;;;4934841;29;20055;-73
2022/07/21 00:55:27;;;;;;;14.10;6.32;;;20.80;99.90;;;;;;4934982;29;20122;-74
2022/07/21 00:57:53;;;;;;;7.50;5.53;;;20.90;99.90;;;;;;4934776;29;20079;-74
2022/07/21 01:00:37;;;;;;;12.20;6.63;;;20.90;99.90;;;;;;4934625;29;20051;-74
2022/07/21 01:03:03;;;;;;;8.23;5.88;;;20.90;99.90;;;;;;4934933;29;20047;-72
2022/07/21 01:05:29;;;;;;;9.52;5.43;;;20.80;99.90;;;;;;4935165;29;20059;-74
2022/07/21 01:08:02;;;;;;;13.10;6.53;;;20.70;99.90;;;;;;4935100;29;20474;-73
2022/07/21 01:10:28;;;;;;;8.52;5.38;;;20.70;99.90;;;;;;4934730;29;20477;-73
2022/07/21 01:12:54;;;;;;;8.55;6.32;;;20.70;99.90;;;;;;4935023;29;20051;-74
2022/07/21 01:15:21;;;;;;;11.80;7.00;;;20.60;99.90;;;;;;4935068;29;20471;-73
2022/07/21 01:17:47;;;;;;;12.13;7.78;;;20.60;99.90;;;;;;4934371;29;20044;-73
2022/07/21 01:20:17;;;;;;;12.60;8.45;;;20.60;99.90;;;;;;4933279;29;20163;-73
2022/07/21 01:22:46;;;;;;;8.40;7.10;;;20.50;99.90;;;;;;4934541;29;20075;-72
2022/07/21 01:25:12;;;;;;;9.80;7.18;;;20.40;99.90;;;;;;4934537;29;20476;-73
2022/07/21 01:27:38;;;;;;;8.05;6.63;;;20.40;99.90;;;;;;4934795;29;20457;-72
2022/07/21 01:30:09;;;;;;;10.30;6.60;;;20.30;99.90;;;;;;4937479;29;20048;-72
2022/07/21 01:32:36;;;;;;;9.80;6.53;;;20.20;99.90;;;;;;4937923;29;20093;-72
2022/07/21 01:35:04;;;;;;;16.52;8.10;;;20.20;99.90;;;;;;4936991;29;20107;-72
2022/07/21 01:37:31;;;;;;;13.93;6.95;;;20.10;99.90;;;;;;4937746;29;20052;-72
2022/07/21 01:42:41;;;;;;;16.60;7.07;;;20.20;99.90;;;;;;4937795;29;20063;-71
2022/07/21 01:45:07;;;;;;;11.52;7.15;;;20.20;99.90;;;;;;4937741;29;20114;-71
2022/07/21 01:47:34;;;;;;;12.93;7.40;;;20.10;99.90;;;;;;4937897;29;20100;-72
2022/07/21 01:50:01;;;;;;;13.70;7.28;;;20.10;99.90;;;;;;4937861;29;20127;-72
2022/07/21 01:52:27;;;;;;;9.18;6.97;;;20.10;99.90;;;;;;4936507;29;20060;-72
2022/07/21 01:54:52;;;;;;;12.57;8.07;;;20.00;99.90;;;;;;4937940;29;20050;-72
2022/07/21 01:57:18;;;;;;;12.73;7.97;;;20.00;99.90;;;;;;4937324;29;20465;-72
2022/07/21 01:59:44;;;;;;;12.80;6.90;;;19.90;99.90;;;;;;4937484;29;20071;-71
2022/07/21 02:02:10;;;;;;;14.35;7.60;;;19.90;99.90;;;;;;4937378;29;20419;-73
2022/07/21 02:04:36;;;;;;;10.13;5.95;;;19.90;99.90;;;;;;4937275;29;20051;-72
2022/07/21 02:07:02;;;;;;;12.68;6.85;;;19.80;99.90;;;;;;4937146;29;20044;-73
2022/07/21 02:09:28;;;;;;;11.25;7.03;;;19.80;99.90;;;;;;4937348;29;20056;-72
2022/07/21 02:11:54;;;;;;;11.07;6.65;;;19.90;99.90;;;;;;4937152;29;20135;-72
2022/07/21 02:14:19;;;;;;;14.18;7.15;;;19.90;99.90;;;;;;4937395;29;20054;-72
2022/07/21 02:16:45;;;;;;;15.60;7.55;;;19.90;99.90;;;;;;4935714;29;20074;-72
2022/07/21 02:19:11;;;;;;;9.07;6.28;;;19.90;99.90;;;;;;4937546;29;20062;-71
2022/07/21 02:21:37;;;;;;;8.10;6.15;;;19.80;99.90;;;;;;4936948;29;20452;-72
2022/07/21 02:24:03;;;;;;;8.38;6.82;;;19.80;99.90;;;;;;4935808;29;20047;-72
2022/07/21 02:26:28;;;;;;;11.02;7.15;;;19.80;99.90;;;;;;4936332;29;20477;-71
2022/07/21 02:28:54;;;;;;;13.95;7.95;;;19.70;99.90;;;;;;4936921;29;20048;-71
2022/07/21 02:31:20;;;;;;;11.10;6.28;;;19.70;99.90;;;;;;4936870;29;20432;-71
2022/07/21 02:33:46;;;;;;;16.45;8.25;;;19.70;99.90;;;;;;4936759;29;20488;-71
2022/07/21 02:36:11;;;;;;;16.00;8.18;;;19.60;99.90;;;;;;4936962;29;20134;-71
2022/07/21 02:38:37;;;;;;;8.70;6.88;;;19.50;99.90;;;;;;4936188;29;20080;-72
2022/07/21 02:41:04;;;;;;;11.50;8.00;;;19.50;99.90;;;;;;4936047;29;20108;-71
2022/07/21 02:43:29;;;;;;;12.90;7.70;;;19.50;99.90;;;;;;4937077;29;20052;-71
2022/07/21 02:45:55;;;;;;;11.75;7.72;;;19.50;99.90;;;;;;4936439;29;20416;-71
2022/07/21 02:48:21;;;;;;;13.18;7.47;;;19.50;99.90;;;;;;4936236;29;20047;-71
2022/07/21 02:50:46;;;;;;;11.93;8.40;;;19.50;99.90;;;;;;4935228;29;20055;-71
2022/07/21 02:53:19;;;;;;;14.10;9.10;;;19.50;99.90;;;;;;4936767;29;20043;-71
2022/07/21 02:55:49;;;;;;;9.18;8.02;;;19.50;99.90;;;;;;4936525;29;20499;-71
2022/07/21 02:58:17;;;;;;;15.02;9.85;;;19.60;99.90;;;;;;4934976;29;20450;-71
2022/07/21 03:00:48;;;;;;;13.18;9.45;;;19.50;99.90;;;;;;4936036;29;20082;-71
2022/07/21 03:03:14;;;;;;;13.55;7.95;;;19.60;99.90;;;;;;4936019;29;20043;-71
2022/07/21 03:05:40;;;;;;;10.60;7.63;;;19.60;99.90;;;;;;4935995;29;20043;-71
2022/07/21 03:08:07;;;;;;;11.30;8.27;;;19.60;99.90;;;;;;4935950;29;20055;-71
2022/07/21 03:10:33;;;;;;;12.07;8.70;;;19.70;99.90;;;;;;4936106;29;20052;-71
2022/07/21 03:12:59;;;;;;;12.45;8.95;;;19.70;99.90;;;;;;4936095;29;20047;-71
2022/07/21 03:15:25;;;;;;;13.73;7.88;;;19.70;99.90;;;;;;4936247;29;20086;-71
2022/07/21 03:17:52;;;;;;;16.02;8.27;;;19.80;99.90;;;;;;4936204;29;20055;-71
2022/07/21 03:20:18;;;;;;;12.02;7.97;;;19.80;99.90;;;;;;4936178;29;20039;-71
2022/07/21 03:22:44;;;;;;;16.52;9.57;;;19.80;99.90;;;;;;4934456;29;20355;-71
2022/07/21 03:25:10;;;;;;;12.98;9.18;;;19.80;99.90;;;;;;4935837;29;20475;-71
2022/07/21 03:27:36;;;;;;;15.82;8.90;;;20.00;99.90;;;;;;4918913;29;20052;-71
2022/07/21 03:30:09;;;;;;;13.73;9.48;;;19.80;99.90;;;;;;4935514;29;20486;-72
2022/07/21 03:32:35;;;;;;;10.38;7.82;;;19.70;99.90;;;;;;4934938;29;20134;-71
2022/07/21 03:35:02;;;;;;;12.57;9.07;;;19.70;99.90;;;;;;4935379;29;20052;-71
2022/07/21 03:37:28;;;;;;;16.02;10.18;;;19.70;99.90;;;;;;4935704;29;20044;-71
2022/07/21 03:39:54;;;;;;;11.55;8.32;;;19.70;99.90;;;;;;4934260;29;20103;-71
2022/07/21 03:42:20;;;;;;;9.27;6.97;;;19.80;99.90;;;;;;4935806;29;20060;-71
2022/07/21 03:44:45;;;;;;;13.18;7.97;;;19.80;99.90;;;;;;4935735;29;20422;-71
2022/07/21 03:47:11;;;;;;;16.00;10.52;;;19.80;99.90;;;;;;4935460;29;20051;-71
2022/07/21 03:49:37;;;;;;;10.93;8.35;;;19.70;99.90;;;;;;4935405;29;20490;-71
2022/07/21 03:52:02;;;;;;;11.98;7.32;;;19.80;99.90;;;;;;4934976;29;20434;-71
2022/07/21 03:54:28;;;;;;;9.93;7.30;;;19.70;99.90;;;;;;4935322;29;20051;-71
2022/07/21 03:56:54;;;;;;;10.43;7.90;;;19.70;99.90;;;;;;4934185;29;20353;-71
2022/07/21 03:59:19;;;;;;;9.82;7.20;;;19.70;99.90;;;;;;4935002;29;20092;-71
2022/07/21 04:01:45;;;;;;;13.10;8.70;;;19.70;99.90;;;;;;4933342;29;20056;-71
2022/07/21 04:04:11;;;;;;;14.18;9.13;;;19.70;99.90;;;;;;4935523;29;20043;-71
2022/07/21 04:06:37;;;;;;;11.38;7.60;;;19.70;99.90;;;;;;4935320;29;20539;-72
2022/07/21 04:09:03;;;;;;;12.70;8.85;;;19.60;99.90;;;;;;4935007;29;20075;-71
2022/07/21 04:11:30;;;;;;;13.10;8.88;;;19.60;99.90;;;;;;4934926;29;20464;-71
2022/07/21 04:13:56;;;;;;;9.85;7.95;;;19.70;99.90;;;;;;4935072;29;20059;-71
2022/07/21 04:16:22;;;;;;;12.50;8.35;;;19.60;99.90;;;;;;4934933;29;20051;-71
2022/07/21 04:18:47;;;;;;;14.57;8.95;;;19.60;99.90;;;;;;4934735;29;20044;-71
2022/07/21 04:21:13;;;;;;;11.57;9.02;;;19.70;99.90;;;;;;4934393;29;20066;-71
2022/07/21 04:23:39;;;;;;;13.35;8.18;;;19.60;99.90;;;;;;4934863;29;20130;-71
2022/07/21 04:26:05;;;;;;;11.82;8.05;;;19.70;99.90;;;;;;4934540;29;20094;-71
2022/07/21 04:28:30;;;;;;;10.88;7.18;;;19.70;99.90;;;;;;4934789;29;20051;-71
2022/07/21 04:30:56;;;;;;;10.27;7.93;;;19.70;99.90;;;;;;4935088;29;20512;-71
2022/07/21 04:33:22;;;;;;;11.60;8.88;;;19.70;99.90;;;;;;4935079;29;20487;-71
2022/07/21 04:35:48;;;;;;;11.57;8.05;;;19.60;99.90;;;;;;4935164;29;20051;-71
2022/07/21 04:38:14;;;;;;;11.82;8.63;;;19.70;99.90;;;;;;4934826;29;20523;-71
2022/07/21 04:40:40;;;;;;;13.65;8.38;;;19.70;99.90;;;;;;4935115;29;20056;-71
2022/07/21 04:43:06;;;;;;;10.60;8.40;;;19.70;99.90;;;;;;4934982;29;20062;-71
2022/07/21 04:45:32;;;;;;;13.15;8.73;;;19.70;99.90;;;;;;4934352;29;20384;-72
2022/07/21 04:47:58;;;;;;;14.63;11.02;;;19.70;99.90;;;;;;4933906;29;20050;-72
2022/07/21 04:50:27;;;;;;;12.48;8.63;;;19.70;99.90;;;;;;4933438;29;20127;-72
2022/07/21 04:52:53;;;;;;;17.50;11.02;;;19.70;99.90;;;;;;4934722;29;20078;-72
2022/07/21 04:55:19;;;;;;;15.93;10.75;;;19.70;99.90;;;;;;4933500;29;20047;-72
2022/07/21 04:57:48;;;;;;;17.45;10.88;;;19.70;99.90;;;;;;4934542;29;20044;-72
2022/07/21 05:00:17;;;;;;;14.25;10.85;;;19.80;99.90;;;;;;4934843;29;20079;-73
2022/07/21 05:02:43;;;;;;;16.52;11.40;;;19.80;99.90;;;;;;4935460;29;20047;-71
2022/07/21 05:05:09;;;;;;;16.67;12.13;;;19.80;99.90;;;;;;4938210;29;20067;-72
2022/07/21 05:07:35;;;;;;;17.55;11.60;;;19.90;99.90;;;;;;4938437;29;20126;-71
2022/07/21 05:10:09;;;;;;;20.50;14.98;;;19.80;99.90;;;;;;4938213;29;20130;-71
2022/07/21 05:12:35;;;;;;;18.10;11.57;;;19.80;99.90;;;;;;4938441;29;20066;-71
2022/07/21 05:15:02;;;;;;;19.40;14.48;;;19.80;99.90;;;;;;4938253;29;20059;-72
2022/07/21 05:17:27;;;;;;;18.80;11.55;;;19.80;99.90;;;;;;4937809;29;20043;-71
2022/07/21 05:19:53;;;;;;;20.02;14.65;;;19.80;99.90;;;;;;4937834;29;20123;-71
2022/07/21 05:22:19;;;;;;;24.00;15.23;;;19.90;99.90;;;;;;4937766;29;20058;-72
2022/07/21 05:24:45;;;;;;;21.25;14.95;;;19.90;99.90;;;;;;4937708;29;20123;-72
2022/07/21 05:27:12;;;;;;;22.60;15.32;;;19.90;99.90;;;;;;4937571;29;20052;-72
2022/07/21 05:29:37;;;;;;;23.30;15.77;;;20.00;99.90;;;;;;4936690;29;20048;-72
2022/07/21 05:32:04;;;;;;;25.95;17.08;;;20.00;99.90;;;;;;4937862;29;20168;-72
2022/07/21 05:34:29;;;;;;;24.67;17.17;;;20.10;99.90;;;;;;4937666;29;20051;-72
2022/07/21 05:36:55;;;;;;;25.38;17.23;;;20.10;99.90;;;;;;4937420;29;20444;-71
2022/07/21 05:39:20;;;;;;;21.30;14.45;;;20.10;99.90;;;;;;4937383;29;20495;-71
2022/07/21 05:41:46;;;;;;;26.80;18.08;;;20.20;99.90;;;;;;4937208;29;20059;-71
2022/07/21 05:44:12;;;;;;;21.88;15.25;;;20.20;99.90;;;;;;4937460;29;20047;-72
2022/07/21 05:46:38;;;;;;;23.58;17.20;;;20.20;99.90;;;;;;4937624;29;20470;-72
2022/07/21 05:49:04;;;;;;;25.83;18.10;;;20.30;99.90;;;;;;4937421;29;20481;-71
2022/07/21 05:51:29;;;;;;;27.02;17.27;;;20.30;99.90;;;;;;4937552;29;20063;-70
2022/07/21 05:53:55;;;;;;;25.80;17.10;;;20.40;99.90;;;;;;4937302;29;20143;-70
2022/07/21 05:56:21;;;;;;;25.48;17.08;;;20.40;99.90;;;;;;4937575;29;20051;-70
2022/07/21 05:58:46;;;;;;;23.25;16.48;;;20.50;99.90;;;;;;4937262;29;20521;-70
2022/07/21 06:01:12;;;;;;;23.10;17.30;;;20.60;99.90;;;;;;4937117;29;20394;-70
2022/07/21 06:03:44;;;;;;;28.42;18.98;;;20.60;99.90;;;;;;4937035;29;20051;-70
2022/07/21 06:06:12;;;;;;;25.70;18.23;;;20.80;99.90;;;;;;4937324;29;20051;-70
2022/07/21 06:08:40;;;;;;;26.40;19.27;;;20.90;99.90;;;;;;4935143;29;20055;-70
2022/07/21 06:11:07;;;;;;;25.83;18.08;;;20.90;99.90;;;;;;4935789;29;20126;-71
2022/07/21 06:13:32;;;;;;;26.85;19.02;;;21.20;99.90;;;;;;4936805;29;20048;-70
2022/07/21 06:15:58;;;;;;;24.05;17.58;;;21.50;99.90;;;;;;4935717;29;20054;-70
2022/07/21 06:18:24;;;;;;;25.58;18.92;;;21.80;99.90;;;;;;4936798;29;20082;-70
2022/07/21 06:20:50;;;;;;;26.50;19.77;;;22.00;99.90;;;;;;4937090;29;20112;-71
2022/07/21 06:23:16;;;;;;;24.67;18.02;;;22.20;99.90;;;;;;4936220;29;20047;-70
2022/07/21 06:25:41;;;;;;;22.00;16.27;;;22.30;99.90;;;;;;4937075;29;20055;-71
2022/07/21 06:28:07;;;;;;;21.70;16.92;;;22.20;99.90;;;;;;4936608;29;20604;-70
2022/07/21 06:30:33;;;;;;;23.92;17.08;;;22.30;99.90;;;;;;4936924;29;20350;-70
2022/07/21 06:32:59;;;;;;;21.95;16.95;;;22.30;99.90;;;;;;4936425;29;20051;-71
2022/07/21 06:35:25;;;;;;;24.23;17.05;;;22.30;99.90;;;;;;4936362;29;20134;-72
2022/07/21 06:37:50;;;;;;;22.70;16.90;;;22.00;99.90;;;;;;4935997;29;20105;-71
2022/07/21 06:40:16;;;;;;;23.88;17.60;;;21.90;99.90;;;;;;4935916;29;20055;-72
2022/07/21 06:42:42;;;;;;;27.45;17.83;;;21.70;99.90;;;;;;4935716;29;20496;-73
2022/07/21 06:45:08;;;;;;;25.25;18.77;;;21.50;99.90;;;;;;4936085;29;20055;-72
2022/07/21 06:47:34;;;;;;;27.52;18.40;;;21.40;99.90;;;;;;4936073;29;20448;-74
2022/07/21 06:50:02;;;;;;;30.77;19.38;;;21.40;99.90;;;;;;4936392;29;20054;-72
2022/07/21 06:52:33;;;;;;;23.55;18.23;;;21.60;99.90;;;;;;4934931;29;20154;-73
2022/07/21 06:54:59;;;;;;;24.38;18.67;;;21.60;99.90;;;;;;4936096;29;20051;-71
2022/07/21 06:57:24;;;;;;;30.42;18.92;;;21.70;99.90;;;;;;4934612;29;20484;-71
2022/07/21 06:59:50;;;;;;;24.60;18.98;;;21.50;99.90;;;;;;4934684;29;20047;-72
2022/07/21 07:02:16;;;;;;;22.10;17.08;;;21.40;99.90;;;;;;4935689;29;20657;-74
2022/07/21 07:04:43;;;;;;;22.08;16.40;;;21.30;99.90;;;;;;4935511;29;20056;-74
2022/07/21 07:07:09;;;;;;;24.08;18.02;;;21.20;99.90;;;;;;4935521;29;20083;-73
2022/07/21 07:09:35;;;;;;;23.25;16.63;;;21.20;99.90;;;;;;4934215;29;20054;-74
2022/07/21 07:12:04;;;;;;;21.75;16.83;;;21.20;99.90;;;;;;4935754;29;20052;-73
2022/07/21 07:14:33;;;;;;;23.05;17.90;;;21.20;99.90;;;;;;4935727;29;20051;-74
2022/07/21 07:17:00;;;;;;;21.63;17.95;;;21.10;99.90;;;;;;4935625;29;20123;-73
2022/07/21 07:19:27;;;;;;;23.05;17.10;;;21.10;99.90;;;;;;4934863;29;20451;-77
2022/07/21 07:21:54;;;;;;;25.80;18.10;;;21.20;99.90;;;;;;4934568;29;20050;-72
2022/07/21 07:24:20;;;;;;;22.27;15.10;;;21.10;99.90;;;;;;4935607;29;20102;-71
2022/07/21 07:26:46;;;;;;;24.55;19.05;;;21.20;99.90;;;;;;4934925;29;20405;-71
2022/07/21 07:29:12;;;;;;;24.40;17.38;;;21.20;99.90;;;;;;4936062;29;20084;-71
2022/07/21 07:31:37;;;;;;;21.52;17.83;;;21.20;99.90;;;;;;4935552;29;20131;-71
2022/07/21 07:34:03;;;;;;;24.00;17.77;;;21.20;99.90;;;;;;4935967;29;20087;-71
2022/07/21 07:36:29;;;;;;;23.88;17.58;;;21.20;99.90;;;;;;4935830;29;20047;-70
2022/07/21 07:38:56;;;;;;;23.48;19.02;;;21.20;99.90;;;;;;4935550;29;20052;-71
2022/07/21 07:41:24;;;;;;;23.58;18.88;;;21.20;99.90;;;;;;4935247;29;20059;-71
2022/07/21 07:43:51;;;;;;;24.60;17.30;;;21.30;99.90;;;;;;4935539;29;20048;-71
2022/07/21 07:46:18;;;;;;;24.25;17.70;;;21.20;99.90;;;;;;4935412;29;20052;-71
2022/07/21 07:48:44;;;;;;;26.75;17.90;;;21.20;99.90;;;;;;4934979;29;20520;-71
2022/07/21 07:51:11;;;;;;;25.35;18.50;;;21.30;99.90;;;;;;4935665;29;20052;-71
2022/07/21 07:53:37;;;;;;;31.25;19.23;;;21.30;99.90;;;;;;4935471;29;20047;-71
2022/07/21 07:56:03;;;;;;;24.27;18.45;;;21.40;99.90;;;;;;4934266;29;20048;-71
2022/07/21 07:58:29;;;;;;;26.25;17.23;;;21.40;99.90;;;;;;4935120;29;20040;-71
2022/07/21 08:00:55;;;;;;;25.23;20.38;;;21.40;99.90;;;;;;4934922;29;20043;-71
2022/07/21 08:03:22;;;;;;;26.58;20.17;;;21.30;99.90;;;;;;4935515;29;20048;-71
2022/07/21 08:05:48;;;;;;;25.67;18.80;;;21.30;99.90;;;;;;4935125;29;20051;-71
2022/07/21 08:08:14;;;;;;;24.48;20.25;;;21.40;99.90;;;;;;4935011;29;20071;-71
2022/07/21 08:10:40;;;;;;;27.10;18.52;;;21.50;99.90;;;;;;4935045;29;20063;-71
2022/07/21 08:13:08;;;;;;;27.52;19.88;;;21.60;99.90;;;;;;4934955;29;20055;-71
2022/07/21 08:15:34;;;;;;;23.48;17.98;;;21.70;99.90;;;;;;4935144;29;20056;-71
2022/07/21 08:18:00;;;;;;;31.17;21.27;;;21.80;99.90;;;;;;4934803;29;20050;-71
2022/07/21 08:20:26;;;;;;;26.38;19.23;;;21.90;99.90;;;;;;4934898;29;20118;-71
2022/07/21 08:22:52;;;;;;;25.83;19.25;;;22.00;99.90;;;;;;4934845;29;20059;-71
2022/07/21 08:25:17;;;;;;;26.30;18.95;;;22.10;99.90;;;;;;4934902;29;20477;-71
2022/07/21 08:27:43;;;;;;;25.73;19.15;;;22.20;99.90;;;;;;4934737;29;20126;-71
2022/07/21 08:30:09;;;;;;;31.48;21.33;;;22.30;99.90;;;;;;4934866;29;20044;-71
2022/07/21 08:32:35;;;;;;;29.92;20.38;;;22.40;99.90;;;;;;4934673;29;20063;-71
2022/07/21 08:35:01;;;;;;;29.83;18.48;;;22.40;99.90;;;;;;4934790;29;20047;-71
2022/07/21 08:37:27;;;;;;;31.52;18.92;;;22.50;99.90;;;;;;4936814;29;20452;-72
2022/07/21 08:39:52;;;;;;;25.02;18.23;;;22.90;99.90;;;;;;4938615;29;20058;-71
2022/07/21 08:42:18;;;;;;;28.25;18.83;;;23.50;99.90;;;;;;4939211;29;20138;-72
2022/07/21 08:44:44;;;;;;;24.60;18.27;;;23.70;99.90;;;;;;4938700;29;20059;-72
2022/07/21 08:47:10;;;;;;;23.38;16.80;;;24.00;99.90;;;;;;4938462;29;20062;-72
2022/07/21 08:49:36;;;;;;;28.73;18.27;;;24.10;99.90;;;;;;4939104;29;20120;-71
2022/07/21 08:52:05;;;;;;;23.90;16.77;;;24.30;99.90;;;;;;4938634;29;20123;-72
2022/07/21 08:54:32;;;;;;;25.45;18.73;;;24.40;99.90;;;;;;4938434;29;20050;-72
2022/07/21 08:56:58;;;;;;;23.15;18.05;;;24.40;99.90;;;;;;4938086;29;20520;-72
2022/07/21 08:59:23;;;;;;;24.55;15.27;;;24.20;99.90;;;;;;4937560;29;20059;-72
2022/07/21 09:01:49;;;;;;;23.83;16.00;;;24.30;99.90;;;;;;4938334;29;20044;-72
2022/07/21 09:04:26;;;;;;;23.60;16.25;;;24.40;99.90;;;;;;4938300;29;20051;-72
2022/07/21 09:07:04;;;;;;;22.70;15.18;;;24.80;99.90;;;;;;4937931;29;20055;-72
2022/07/21 09:09:32;;;;;;;17.20;13.60;;;25.70;99.90;;;;;;4938527;29;20055;-72
2022/07/21 09:12:01;;;;;;;18.75;13.68;;;26.10;99.90;;;;;;4937996;29;20475;-72
2022/07/21 09:14:30;;;;;;;16.02;13.00;;;26.40;99.90;;;;;;4936792;29;20082;-72
2022/07/21 09:17:02;;;;;;;22.75;15.57;;;26.60;99.90;;;;;;4937939;29;20047;-72
2022/07/21 09:19:38;;;;;;;20.48;14.35;;;26.70;99.90;;;;;;4938268;29;20074;-73
2022/07/21 09:22:06;;;;;;;19.73;15.27;;;26.50;99.90;;;;;;4937910;29;20103;-73
2022/07/21 09:24:38;;;;;;;18.52;13.15;;;26.20;99.90;;;;;;4936234;29;20143;-72
2022/07/21 09:27:12;;;;;;;18.90;13.38;;;26.50;99.90;;;;;;4937845;29;20048;-72
2022/07/21 09:29:45;;;;;;;17.52;12.80;;;27.30;99.90;;;;;;4936627;29;20055;-73
2022/07/21 09:32:14;;;;;;;19.17;13.95;;;27.70;99.90;;;;;;4937998;29;20075;-72
2022/07/21 09:34:39;;;;;;;21.98;15.30;;;27.80;99.90;;;;;;4937055;29;20063;-73
2022/07/21 09:37:07;;;;;;;19.08;15.00;;;27.90;99.90;;;;;;4937565;29;20043;-73
2022/07/21 09:39:55;;;;;;;15.05;11.88;;;28.20;99.90;;;;;;4937954;29;20048;-73
2022/07/21 09:42:32;;;;;;;16.05;11.82;;;28.50;99.90;;;;;;4936567;29;20455;-73
2022/07/21 09:45:02;;;;;;;15.13;11.38;;;29.00;99.90;;;;;;4937659;29;20056;-73
2022/07/21 09:47:29;;;;;;;17.67;15.25;;;29.00;99.90;;;;;;4937871;29;20055;-74
2022/07/21 09:49:56;;;;;;;17.77;13.50;;;29.20;99.90;;;;;;4936645;29;20047;-73
2022/07/21 09:52:35;;;;;;;16.63;14.05;;;29.20;99.90;;;;;;4935781;29;20043;-73
2022/07/21 09:55:05;;;;;;;19.88;14.10;;;29.40;99.90;;;;;;4936264;29;20075;-73
2022/07/21 09:57:32;;;;;;;21.67;15.65;;;29.30;99.90;;;;;;4936468;29;20118;-72
2022/07/21 09:59:58;;;;;;;14.68;13.05;;;28.70;99.90;;;;;;4935523;29;20130;-72
2022/07/21 10:02:29;;;;;;;21.73;16.00;;;28.10;99.90;;;;;;4936743;29;20055;-72
2022/07/21 10:05:08;;;;;;;18.73;15.45;;;27.60;99.90;;;;;;4920057;29;20054;-72
2022/07/21 10:07:37;;;;;;;19.88;15.05;;;27.30;99.90;;;;;;4936658;29;20059;-72
2022/07/21 10:10:04;;;;;;;20.65;16.05;;;27.00;99.90;;;;;;4936862;29;20048;-72
2022/07/21 10:12:30;;;;;;;16.55;14.18;;;26.40;99.90;;;;;;4936628;29;20048;-73
2022/07/21 10:14:56;;;;;;;19.50;17.42;;;26.10;99.90;;;;;;4936489;29;20051;-72
2022/07/21 10:17:24;;;;;;;18.45;16.45;;;25.90;99.90;;;;;;4936776;29;20047;-72
2022/07/21 10:20:03;;;;;;;22.10;17.65;;;25.60;99.90;;;;;;4936716;29;20048;-72
2022/07/21 10:22:55;;;;;;;22.95;18.17;;;25.50;99.90;;;;;;4936635;29;20085;-72
2022/07/21 10:25:22;;;;;;;21.80;16.80;;;25.30;99.90;;;;;;4935955;29;20083;-72
2022/07/21 10:28:09;;;;;;;21.95;17.23;;;25.20;99.90;;;;;;4935065;29;20074;-72
2022/07/21 10:30:43;;;;;;;23.17;19.05;;;25.00;99.90;;;;;;4936618;29;20387;-72
2022/07/21 10:33:10;;;;;;;27.80;19.75;;;25.00;99.90;;;;;;4936644;29;20052;-71
2022/07/21 10:35:41;;;;;;;25.38;19.55;;;24.90;99.90;;;;;;4936144;29;20044;-72
2022/07/21 10:38:31;;;;;;;23.73;17.88;;;24.90;99.90;;;;;;4936163;29;20119;-72
2022/07/21 10:40:59;;;;;;;24.25;19.42;;;24.90;99.90;;;;;;4936102;29;20055;-71
2022/07/21 10:43:25;;;;;;;30.35;21.73;;;24.90;99.90;;;;;;4936139;29;20051;-72
2022/07/21 10:45:52;;;;;;;27.25;19.42;;;24.70;99.90;;;;;;4935874;29;20438;-72
2022/07/21 10:48:36;;;;;;;29.52;21.65;;;24.70;99.90;;;;;;4935069;29;20044;-72
2022/07/21 10:51:12;;;;;;;24.73;19.73;;;24.50;99.90;;;;;;4936160;29;20052;-72
2022/07/21 10:53:38;;;;;;;24.60;18.40;;;24.30;99.90;;;;;;4935951;29;20058;-72
2022/07/21 10:56:05;;;;;;;24.88;18.13;;;24.30;99.90;;;;;;4934946;29;20064;-72
2022/07/21 10:58:32;;;;;;;25.67;18.30;;;24.20;99.90;;;;;;4935890;29;20576;-72
2022/07/21 11:01:00;;;;;;;26.33;18.23;;;24.30;99.90;;;;;;4934934;29;20051;-72
2022/07/21 11:03:27;;;;;;;27.30;15.90;;;24.30;99.90;;;;;;4935715;29;20480;-72
2022/07/21 11:06:13;;;;;;;33.58;15.85;;;24.30;99.90;;;;;;4936047;29;20047;-72
2022/07/21 11:08:43;;;;;;;20.52;16.25;;;24.40;99.90;;;;;;4935444;29;20044;-72
2022/07/21 11:11:22;;;;;;;20.50;15.10;;;24.50;99.90;;;;;;4934316;29;20058;-72
2022/07/21 11:14:29;;;;;;;19.88;15.23;;;24.50;99.90;;;;;;4935929;29;20052;-73
2022/07/21 11:17:01;;;;;;;20.70;14.93;;;24.50;99.90;;;;;;4934037;29;20059;-72
2022/07/21 11:19:33;;;;;;;21.30;15.95;;;24.50;99.90;;;;;;4934914;29;20479;-73
2022/07/21 11:22:21;;;;;;;19.60;14.23;;;24.60;99.90;;;;;;5105643;27;21669;-72
2022/07/21 11:24:52;;;;;;;23.67;17.33;;;24.60;99.90;;;;;;5087894;28;20072;-73
2022/07/21 11:27:21;;;;;;;22.17;15.65;;;24.60;99.90;;;;;;5088693;28;20051;-73
2022/07/21 11:29:49;;;;;;;24.48;16.10;;;24.60;99.90;;;;;;5090016;28;20040;-73
2022/07/21 11:32:17;;;;;;;22.52;16.88;;;24.50;99.90;;;;;;5089434;28;20040;-73
2022/07/21 11:34:46;;;;;;;23.88;16.00;;;24.60;99.90;;;;;;5081579;28;20044;-73
2022/07/21 11:37:16;;;;;;;20.45;14.10;;;24.60;99.90;;;;;;5087764;28;20040;-73
2022/07/21 11:39:41;;;;;;;20.48;14.75;;;24.80;99.90;;;;;;5088806;28;20398;-71
2022/07/21 11:42:15;;;;;;;20.77;15.20;;;24.90;99.90;;;;;;5086959;28;20480;-72
2022/07/21 11:44:42;;;;;;;22.60;14.23;;;24.90;99.90;;;;;;5087635;28;20048;-72
2022/07/21 11:47:11;;;;;;;22.33;15.15;;;25.00;99.90;;;;;;5088508;28;20068;-72
2022/07/21 11:49:37;;;;;;;19.80;13.80;;;25.00;99.90;;;;;;5089102;28;20061;-72
2022/07/21 11:52:09;;;;;;;23.23;14.63;;;25.00;99.90;;;;;;5089034;28;20482;-72
2022/07/21 11:54:45;;;;;;;23.85;16.35;;;25.10;99.90;;;;;;5089775;28;20105;-72
2022/07/21 11:57:12;;;;;;;19.02;14.85;;;25.20;99.90;;;;;;5090168;28;20043;-71
2022/07/21 11:59:40;;;;;;;20.60;15.13;;;25.30;99.90;;;;;;5088436;28;20815;-72
2022/07/21 12:02:08;;;;;;;21.33;15.00;;;25.30;99.90;;;;;;5095355;28;20048;-71
2022/07/21 12:04:58;;;;;;;17.25;13.90;;;25.30;99.90;;;;;;5086565;28;20048;-72
2022/07/21 12:07:37;;;;;;;19.30;14.18;;;25.40;99.90;;;;;;5090020;28;20044;-72
2022/07/21 12:10:20;;;;;;;21.80;16.20;;;25.40;99.90;;;;;;5090431;28;20067;-72
2022/07/21 12:12:48;;;;;;;;;;;25.50;99.90;;;;;;5084073;28;20048;-72
2022/07/21 12:15:18;;;;;;;20.00;14.20;;;25.50;99.90;;;;;;5086093;28;19928;-72
2022/07/21 12:17:49;;;;;;;19.00;14.48;;;25.80;99.90;;;;;;5084806;28;20432;-72
2022/07/21 12:20:30;;;;;;;17.45;13.20;;;25.90;99.90;;;;;;5087287;28;20059;-72
2022/07/21 12:23:02;;;;;;;22.95;13.95;;;26.00;99.90;;;;;;5086549;28;20381;-72
2022/07/21 12:25:40;;;;;;;21.08;15.95;;;26.10;99.90;;;;;;5088030;28;20098;-73
2022/07/21 12:28:07;;;;;;;21.40;16.10;;;25.90;99.90;;;;;;5088981;28;20044;-72
2022/07/21 12:30:46;;;;;;;19.02;14.95;;;25.80;99.90;;;;;;5087103;28;20028;-72
2022/07/21 12:33:18;;;;;;;19.50;14.82;;;25.90;99.90;;;;;;5075694;28;20949;-73
2022/07/21 12:35:57;;;;;;;22.00;15.48;;;25.90;99.90;;;;;;5074396;28;20828;-72
2022/07/21 12:38:39;;;;;;;24.17;16.77;;;25.90;99.90;;;;;;5074010;28;20585;-73
2022/07/21 12:41:06;;;;;;;18.65;14.48;;;25.90;99.90;;;;;;5074508;28;20089;-73